Time;durP1;ratioP1;P1;durP2;ratioP2;P2;SDS_P1;SDS_P2;PMS_P1;PMS_P2;Temp;Humidity;BMP_temperature;BMP_pressure;BME280_temperature;BME280_humidity;BME280_pressure;Samples;Min_cycle;Max_cycle;Signal;HPM_P1;HPM_P2
2021/03/18 00:01:13;;;;;;;;;;;;;;;1.46;100.00;97327.00;1641195;87;22091;-73
2021/03/18 00:03:42;;;;;;;;;;;;;;;1.45;100.00;97322.31;1639398;87;20565;-72
2021/03/18 00:06:10;;;;;;;;;;;;;;;1.47;100.00;97316.45;1638904;87;20253;-73
2021/03/18 00:08:38;;;;;;;;;;;;;;;1.48;100.00;97320.63;1638864;87;20506;-73
2021/03/18 00:11:10;;;;;;;;;;;;;;;1.52;100.00;97327.50;1638876;87;20703;-75
2021/03/18 00:13:40;;;;;;;;;;;;;;;1.54;100.00;97325.02;1639009;87;22215;-72
2021/03/18 00:16:08;;;;;;;;;;;;;;;1.55;100.00;97320.14;1639115;87;20500;-73
2021/03/18 00:18:41;;;;;;;;;;;;;;;1.57;100.00;97316.06;1638859;87;20518;-73
2021/03/18 00:21:09;;;;;;;;;;;;;;;1.56;100.00;97324.83;1638956;87;20506;-72
2021/03/18 00:23:37;;;;;;;;;;;;;;;1.56;100.00;97324.83;1639058;87;20765;-73
2021/03/18 00:26:05;;;;;;;;;;;;;;;1.56;100.00;97322.23;1639113;87;22088;-72
2021/03/18 00:28:32;;;;;;;;;;;;;;;1.55;100.00;97316.26;1638784;87;20510;-72
2021/03/18 00:31:00;;;;;;;;;;;;;;;1.56;100.00;97319.16;1633613;86;20479;-73
2021/03/18 00:33:30;;;;;;;;;;;;;;;1.58;100.00;97323.34;1631910;87;20499;-72
2021/03/18 00:35:58;;;;;;;;;;;;;;;1.56;100.00;97319.16;1630370;87;21008;-72
2021/03/18 00:38:26;;;;;;;;;;;;;;;1.53;100.00;97310.97;1629693;87;21944;-73
2021/03/18 00:41:00;;;;;;;;;;;;;;;1.56;100.00;97311.88;1629642;87;20498;-72
2021/03/18 00:43:29;;;;;;;;;;;;;;;1.56;100.00;97308.80;1629525;87;20613;-72
2021/03/18 00:45:56;;;;;;;;;;;;;;;1.59;100.00;97310.17;1629490;87;20399;-72
2021/03/18 00:48:25;;;;;;;;;;;;;;;1.60;100.00;97315.66;1629757;87;20495;-72
2021/03/18 00:50:55;;;;;;;;;;;;;;;1.63;100.00;97308.80;1629703;87;21966;-71
2021/03/18 00:53:31;;;;;;;;;;;;;;;1.64;100.00;97309.09;1629409;87;20513;-72
2021/03/18 00:56:00;;;;;;;;;;;;;;;1.66;100.00;97303.20;1629446;87;20720;-72
2021/03/18 00:58:28;;;;;;;;;;;;;;;1.66;100.00;97301.14;1629734;87;20491;-71
2021/03/18 01:01:03;;;;;;;;;;;;;;;1.65;100.00;97307.31;1651773;79;21497;-72
2021/03/18 01:03:35;;;;;;;;;;;;;;;1.64;100.00;97295.34;1681368;84;21207;-72
2021/03/18 01:06:07;;;;;;;;;;;;;;;1.63;100.00;97301.02;1713095;82;20477;-71
2021/03/18 01:08:35;;;;;;;;;;;;;;;1.60;100.00;97309.18;1713022;82;20217;-71
2021/03/18 01:11:05;;;;;;;;;;;;;;;1.60;100.00;97304.00;1712806;82;20497;-71
2021/03/18 01:13:34;;;;;;;;;;;;;;;1.61;100.00;97305.59;1712789;82;20493;-71
2021/03/18 01:16:10;;;;;;;;;;;;;;;1.63;100.00;97299.73;1713021;81;21914;-71
2021/03/18 01:18:42;;;;;;;;;;;;;;;1.64;100.00;97307.80;1713045;81;20502;-72
2021/03/18 01:21:11;;;;;;;;;;;;;;;1.66;100.00;97309.67;1712739;82;20477;-71
2021/03/18 01:23:39;;;;;;;;;;;;;;;1.65;100.00;97299.04;1712734;81;20497;-71
2021/03/18 01:26:07;;;;;;;;;;;;;;;1.65;100.00;97296.95;1712840;81;20784;-71
2021/03/18 01:28:35;;;;;;;;;;;;;;;1.64;100.00;97301.33;1712827;81;22071;-71
2021/03/18 01:31:04;;;;;;;;;;;;;;;1.64;100.00;97312.19;1713179;81;20489;-72
2021/03/18 01:33:33;;;;;;;;;;;;;;;1.61;100.00;97303.01;1714455;81;20233;-72
2021/03/18 01:36:01;;;;;;;;;;;;;;;1.61;100.00;97303.50;1714585;81;20485;-72
2021/03/18 01:38:29;;;;;;;;;;;;;;;1.60;100.00;97303.20;1712778;81;20623;-72
2021/03/18 01:40:57;;;;;;;;;;;;;;;1.59;100.00;97306.28;1712897;81;21922;-72
2021/03/18 01:43:25;;;;;;;;;;;;;;;1.58;100.00;97297.44;1712665;83;20517;-71
2021/03/18 01:45:53;;;;;;;;;;;;;;;1.56;100.00;97298.93;1712995;82;20235;-72
2021/03/18 01:48:21;;;;;;;;;;;;;;;1.57;100.00;97305.70;1712732;83;20489;-72
2021/03/18 01:50:49;;;;;;;;;;;;;;;1.57;100.00;97309.59;1712876;83;20641;-73
2021/03/18 01:53:19;;;;;;;;;;;;;;;1.54;100.00;97304.30;1712971;83;20970;-72
2021/03/18 01:55:47;;;;;;;;;;;;;;;1.51;100.00;97306.51;1712857;81;20504;-72
2021/03/18 01:58:15;;;;;;;;;;;;;;;1.51;100.00;97311.69;1712728;83;20540;-72
2021/03/18 02:00:45;;;;;;;;;;;;;;;1.49;100.00;97307.98;1712875;81;20485;-72
2021/03/18 02:03:14;;;;;;;;;;;;;;;1.49;100.00;97307.19;1717157;81;21024;-72
2021/03/18 02:05:42;;;;;;;;;;;;;;;1.50;100.00;97317.36;1753914;81;21870;-73
2021/03/18 02:08:10;;;;;;;;;;;;;;;1.50;100.00;97313.97;1753810;81;20681;-72
2021/03/18 02:10:37;;;;;;;;;;;;;;;1.49;100.00;97320.94;1752050;81;20488;-72
2021/03/18 02:13:06;;;;;;;;;;;;;;;1.49;100.00;97316.25;1726459;81;20510;-72
2021/03/18 02:15:41;;;;;;;;;;;;;;;1.48;100.00;97321.13;1730914;82;20225;-72
2021/03/18 02:18:27;;;;;;;;;;;;;;;1.46;100.00;97321.81;1730897;82;22114;-72
2021/03/18 02:21:10;;;;;;;;;;;;;;;1.46;100.00;97313.55;1730607;82;20686;-71
2021/03/18 02:23:50;;;;;;;;;;;;;;;1.48;100.00;97323.23;1730598;82;20486;-71
2021/03/18 02:26:31;;;;;;;;;;;;;;;1.47;100.00;97324.70;1724504;81;20225;-71
2021/03/18 02:29:36;;;;;;;;;;;;;;;1.48;100.00;97323.23;1723437;82;20823;-71
2021/03/18 02:32:25;;;;;;;;;;;;;;;1.48;100.00;97325.02;1723281;82;20963;-71
2021/03/18 02:35:27;;;;;;;;;;;;;;;1.46;100.00;97332.17;1723053;82;20444;-71
2021/03/18 02:38:20;;;;;;;;;;;;;;;1.45;100.00;97326.20;1720615;82;20276;-71
2021/03/18 02:40:51;;;;;;;;;;;;;;;1.44;100.00;97334.95;1725337;82;20497;-71
2021/03/18 02:43:19;;;;;;;;;;;;;;;1.43;100.00;97330.00;1725229;82;20506;-72
2021/03/18 02:45:49;;;;;;;;;;;;;;;1.42;100.00;97334.87;1721832;81;20942;-70
2021/03/18 02:48:23;;;;;;;;;;;;;;;1.41;100.00;97334.56;1730837;82;20491;-69
2021/03/18 02:50:51;;;;;;;;;;;;;;;1.38;100.00;97342.22;1728902;82;20486;-70
2021/03/18 02:53:19;;;;;;;;;;;;;;;1.39;100.00;97340.43;1725289;82;20517;-70
2021/03/18 02:55:47;;;;;;;;;;;;;;;1.36;100.00;97342.94;1730831;82;20622;-70
2021/03/18 02:58:16;;;;;;;;;;;;;;;1.33;100.00;97340.72;1730747;82;21905;-71
2021/03/18 03:00:44;;;;;;;;;;;;;;;1.31;100.00;97342.70;1730454;82;20476;-71
2021/03/18 03:03:12;;;;;;;;;;;;;;;1.31;100.00;97339.31;1720182;82;20482;-71
2021/03/18 03:05:40;;;;;;;;;;;;;;;1.32;100.00;97349.97;1727737;82;20514;-70
2021/03/18 03:08:08;;;;;;;;;;;;;;;1.33;100.00;97347.69;1723481;82;20489;-71
2021/03/18 03:10:36;;;;;;;;;;;;;;;1.34;100.00;97357.85;1731264;82;20998;-71
2021/03/18 03:13:04;;;;;;;;;;;;;;;1.34;100.00;97354.47;1726116;82;20225;-71
2021/03/18 03:15:32;;;;;;;;;;;;;;;1.33;100.00;97345.90;1725867;82;20478;-70
2021/03/18 03:18:03;;;;;;;;;;;;;;;1.32;100.00;97349.97;1729818;81;20282;-70
2021/03/18 03:20:31;;;;;;;;;;;;;;;1.32;100.00;97351.27;1723498;82;20592;-71
2021/03/18 03:22:59;;;;;;;;;;;;;;;1.28;100.00;97362.52;1714196;82;22301;-71
2021/03/18 03:25:29;;;;;;;;;;;;;;;1.27;100.00;97358.33;1720310;81;20478;-70
2021/03/18 03:27:57;;;;;;;;;;;;;;;1.27;100.00;97367.39;1713493;82;20493;-71
2021/03/18 03:30:26;;;;;;;;;;;;;;;1.28;100.00;97360.43;1723097;82;20529;-71
2021/03/18 03:32:54;;;;;;;;;;;;;;;1.27;100.00;97356.24;1723161;82;20607;-70
2021/03/18 03:35:22;;;;;;;;;;;;;;;1.26;100.00;97358.03;1731045;82;21762;-71
2021/03/18 03:37:49;;;;;;;;;;;;;;;1.27;100.00;97363.52;1723125;82;20742;-71
2021/03/18 03:40:18;;;;;;;;;;;;;;;1.30;100.00;97367.52;1728134;82;20233;-71
2021/03/18 03:42:46;;;;;;;;;;;;;;;1.29;100.00;97366.71;1726682;82;20494;-71
2021/03/18 03:45:16;;;;;;;;;;;;;;;1.26;100.00;97364.50;1732383;82;20634;-71
2021/03/18 03:47:45;;;;;;;;;;;;;;;1.24;100.00;97380.71;1732261;82;21925;-71
2021/03/18 03:50:21;;;;;;;;;;;;;;;1.20;100.00;97368.37;1723067;82;20236;-71
2021/03/18 03:52:54;;;;;;;;;;;;;;;1.17;100.00;97369.54;1730947;82;20221;-71
2021/03/18 03:55:41;;;;;;;;;;;;;;;1.16;100.00;97371.83;1723216;82;20316;-70
2021/03/18 03:58:31;;;;;;;;;;;;;;;1.14;100.00;97379.01;1715514;82;20560;-70
2021/03/18 04:01:00;;;;;;;;;;;;;;;1.13;100.00;97376.91;1730649;82;21884;-70
2021/03/18 04:03:29;;;;;;;;;;;;;;;1.10;100.00;97382.46;1714530;82;20486;-70
2021/03/18 04:05:58;;;;;;;;;;;;;;;1.10;100.00;97382.95;1702798;83;20250;-70
2021/03/18 04:08:27;;;;;;;;;;;;;;;1.08;100.00;97380.55;1702723;82;20257;-70
2021/03/18 04:10:57;;;;;;;;;;;;;;;1.09;100.00;97387.83;1702514;82;20605;-70
2021/03/18 04:13:28;;;;;;;;;;;;;;;1.10;100.00;97385.05;1702562;83;22019;-71
2021/03/18 04:15:57;;;;;;;;;;;;;;;1.09;100.00;97391.21;1702701;83;20498;-70
2021/03/18 04:18:31;;;;;;;;;;;;;;;1.10;100.00;97381.66;1704761;82;20494;-71
2021/03/18 04:20:59;;;;;;;;;;;;;;;1.08;100.00;97382.38;1704235;82;20289;-71
2021/03/18 04:23:27;;;;;;;;;;;;;;;1.06;100.00;97381.27;1702737;82;20735;-70
2021/03/18 04:25:57;;;;;;;;;;;;;;;1.09;100.00;97386.04;1702570;83;21816;-70
2021/03/18 04:28:27;;;;;;;;;;;;;;;1.09;100.00;97388.63;1702536;82;20558;-71
2021/03/18 04:30:54;;;;;;;;;;;;;;;1.09;100.00;97395.59;1702523;82;20494;-72
2021/03/18 04:33:23;;;;;;;;;;;;;;;1.04;100.00;97394.88;1702479;83;20506;-70
2021/03/18 04:35:51;;;;;;;;;;;;;;;0.99;100.00;97393.38;1702531;82;20664;-70
2021/03/18 04:38:19;;;;;;;;;;;;;;;0.97;100.00;97399.73;1702506;82;21908;-70
2021/03/18 04:40:47;;;;;;;;;;;;;;;0.95;100.00;97400.41;1702679;83;20490;-70
2021/03/18 04:43:16;;;;;;;;;;;;;;;0.95;100.00;97396.03;1702667;82;20549;-70
2021/03/18 04:45:44;;;;;;;;;;;;;;;0.95;100.00;97408.17;1702658;82;20490;-70
2021/03/18 04:48:13;;;;;;;;;;;;;;;0.92;100.00;97402.10;1702716;83;20723;-70
2021/03/18 04:50:41;;;;;;;;;;;;;;;0.93;100.00;97415.34;1703638;82;21964;-71
2021/03/18 04:53:08;;;;;;;;;;;;;;;0.90;100.00;97404.88;1705334;83;20495;-71
2021/03/18 04:55:36;;;;;;;;;;;;;;;0.93;100.00;97411.46;1702751;82;20482;-70
2021/03/18 04:58:05;;;;;;;;;;;;;;;0.94;100.00;97406.56;1702581;82;20514;-75
2021/03/18 05:00:34;;;;;;;;;;;;;;;0.92;100.00;97406.78;1702763;82;20855;-68
2021/03/18 05:03:03;;;;;;;;;;;;;;;0.92;100.00;97412.45;1699404;83;21910;-71
2021/03/18 05:05:32;;;;;;;;;;;;;;;0.92;100.00;97405.48;1695419;82;20494;-72
2021/03/18 05:08:00;;;;;;;;;;;;;;;0.92;100.00;97411.95;1705305;82;20516;-75
2021/03/18 05:10:31;;;;;;;;;;;;;;;0.91;100.00;97413.44;1705392;82;20504;-74
2021/03/18 05:12:59;;;;;;;;;;;;;;;0.90;100.00;97416.52;1705616;82;20520;-76
2021/03/18 05:15:27;;;;;;;;;;;;;;;0.90;100.00;97415.22;1705393;83;21827;-76
2021/03/18 06:01:11;;;;;;;;;;;;;;;1.14;100.00;97448.88;1868733;75;20565;-65
2021/03/18 06:03:39;;;;;;;;;;;;;;;1.10;100.00;97460.09;1830219;77;20489;-66
2021/03/18 06:06:08;;;;;;;;;;;;;;;1.14;100.00;97460.04;1818425;77;22001;-70
2021/03/18 06:08:37;;;;;;;;;;;;;;;1.18;100.00;97469.50;1838508;77;20479;-67
2021/03/18 06:11:06;;;;;;;;;;;;;;;1.17;100.00;97458.34;1816805;77;20499;-69
2021/03/18 06:13:34;;;;;;;;;;;;;;;1.17;100.00;97471.77;1827292;77;20496;-67
2021/03/18 06:16:02;;;;;;;;;;;;;;;1.16;100.00;97470.97;1840063;75;20549;-73
2021/03/18 06:18:32;;;;;;;;;;;;;;;1.13;100.00;97480.92;1847572;76;21856;-71
2021/03/18 06:21:00;;;;;;;;;;;;;;;1.09;100.00;97478.40;1856549;75;20486;-74
2021/03/18 06:23:28;;;;;;;;;;;;;;;1.09;100.00;97474.52;1827366;76;20507;-73
2021/03/18 06:25:57;;;;;;;;;;;;;;;1.12;100.00;97477.53;1840494;76;20320;-71
2021/03/18 06:28:26;;;;;;;;;;;;;;;1.13;100.00;97477.84;1832275;76;20306;-75
2021/03/18 06:30:57;;;;;;;;;;;;;;;1.16;100.00;97490.39;1832646;77;20774;-75
2021/03/18 06:33:27;;;;;;;;;;;;;;;1.21;100.00;97485.15;1836062;76;20469;-70
2021/03/18 06:35:59;;;;;;;;;;;;;;;1.22;100.00;97486.26;1845886;76;20489;-70
2021/03/18 06:38:32;;;;;;;;;;;;;;;1.25;100.00;97492.33;1834028;76;20486;-74
2021/03/18 06:41:00;;;;;;;;;;;;;;;1.25;100.00;97485.86;1842852;76;20613;-70
2021/03/18 06:43:40;;;;;;;;;;;;;;;1.26;100.00;97490.05;1844967;76;21770;-71
2021/03/18 06:46:15;;;;;;;;;;;;;;;1.24;100.00;97493.31;1811064;77;20584;-70
2021/03/18 06:48:43;;;;;;;;;;;;;;;1.26;100.00;97504.28;1837730;77;20401;-70
2021/03/18 06:51:23;;;;;;;;;;;;;;;1.27;100.00;97499.41;1813534;77;20576;-73
2021/03/18 06:53:53;;;;;;;;;;;;;;;1.32;100.00;97505.30;1832070;77;20559;-73
2021/03/18 06:56:23;;;;;;;;;;;;;;;1.35;100.00;97499.26;1834550;76;20911;-72
2021/03/18 06:58:54;;;;;;;;;;;;;;;1.35;100.00;97508.81;1835189;76;20547;-74
2021/03/18 07:01:23;;;;;;;;;;;;;;;1.37;100.00;97503.73;1838693;76;20505;-70
2021/03/18 07:03:53;;;;;;;;;;;;;;;1.39;100.00;97502.25;1837509;76;20518;-74
2021/03/18 07:06:30;;;;;;;;;;;;;;;1.40;100.00;97507.23;1837090;76;20610;-78
2021/03/18 07:34:12;;;;;;;;;;;;;;;1.80;99.66;97512.58;1835297;76;20618;-74
2021/03/18 07:36:40;;;;;;;;;;;;;;;1.74;98.24;97518.02;1835670;76;20499;-73
2021/03/18 07:39:09;;;;;;;;;;;;;;;1.72;98.04;97523.11;1834631;77;20477;-71
2021/03/18 07:41:38;;;;;;;;;;;;;;;1.73;98.94;97516.42;1837173;76;20696;-76
2021/03/18 07:44:07;;;;;;;;;;;;;;;1.75;98.33;97526.10;1837785;76;20474;-74
2021/03/18 07:46:35;;;;;;;;;;;;;;;1.74;97.66;97521.11;1837247;77;20327;-71
2021/03/18 07:49:07;;;;;;;;;;;;;;;1.74;97.76;97525.80;1835752;76;20756;-73
2021/03/18 07:51:38;;;;;;;;;;;;;;;1.76;97.66;97525.61;1838999;76;20588;-70
2021/03/18 07:54:05;;;;;;;;;;;;;;;1.75;97.09;97527.89;1836823;76;21831;-71
2021/03/18 07:56:33;;;;;;;;;;;;;;;1.73;98.07;97528.61;1836621;76;20490;-71
2021/03/18 07:59:07;;;;;;;;;;;;;;;1.73;98.07;97523.42;1775664;77;20520;-73
2021/03/18 08:01:36;;;;;;;;;;;;;;;1.75;97.88;97523.52;1835589;76;20368;-68
2021/03/18 08:04:06;;;;;;;;;;;;;;;1.80;96.31;97524.24;1837190;75;20735;-72
2021/03/18 08:06:43;;;;;;;;;;;;;;;1.84;94.92;97528.83;1833667;77;22122;-74
2021/03/18 08:09:27;;;;;;;;;;;;;;;1.85;95.37;97529.63;1836654;77;20596;-72
2021/03/18 08:11:55;;;;;;;;;;;;;;;1.92;94.85;97522.67;1833901;76;20480;-71
2021/03/18 08:14:28;;;;;;;;;;;;;;;1.95;93.59;97528.25;1832841;77;20488;-70
2021/03/18 08:16:57;;;;;;;;;;;;;;;1.96;93.16;97524.67;1833863;76;20586;-72
2021/03/18 08:19:26;;;;;;;;;;;;;;;2.00;93.46;97523.00;1832466;77;21198;-75
2021/03/18 08:21:54;;;;;;;;;;;;;;;2.04;92.02;97521.10;1777633;77;20403;-72
2021/03/18 08:24:24;;;;;;;;;;;;;;;2.06;91.53;97526.90;1839988;76;20520;-70
2021/03/18 08:27:03;;;;;;;;;;;;;;;2.15;92.31;97531.41;1833707;76;20520;-72
2021/03/18 08:29:41;;;;;;;;;;;;;;;2.24;89.45;97529.71;1809088;77;20605;-74
2021/03/18 08:32:17;;;;;;;;;;;;;;;2.31;88.20;97537.50;1839452;76;21985;-73
2021/03/18 08:34:49;;;;;;;;;;;;;;;2.37;88.43;97526.86;1838474;76;20581;-73
2021/03/18 08:37:43;;;;;;;;;;;;;;;2.42;88.79;97533.53;1837609;76;20635;-77
2021/03/18 08:40:24;;;;;;;;;;;;;;;2.44;87.61;97530.25;1836211;75;20489;-74
2021/03/18 08:42:53;;;;;;;;;;;;;;;2.44;86.66;97534.95;1829144;76;20679;-69
2021/03/18 08:45:25;;;;;;;;;;;;;;;2.50;86.51;97541.93;1838354;77;21148;-73
2021/03/18 08:47:56;;;;;;;;;;;;;;;2.51;87.01;97534.95;1837115;76;20490;-73
2021/03/18 08:50:28;;;;;;;;;;;;;;;2.50;87.30;97540.63;1835120;77;20631;-69
2021/03/18 08:52:57;;;;;;;;;;;;;;;2.52;88.11;97543.03;1835857;76;20367;-67
2021/03/18 08:55:44;;;;;;;;;;;;;;;2.54;88.89;97545.71;1837452;77;20487;-72
2021/03/18 08:58:14;;;;;;;;;;;;;;;2.57;88.88;97545.83;1835999;76;21892;-69
2021/03/18 09:00:43;;;;;;;;;;;;;;;2.63;89.91;97543.73;1839296;76;20283;-70
2021/03/18 09:03:20;;;;;;;;;;;;;;;2.72;90.83;97546.43;1839209;77;20561;-73
2021/03/18 09:05:55;;;;;;;;;;;;;;;2.79;89.29;97548.52;1839072;77;20475;-72
2021/03/18 09:08:27;;;;;;;;;;;;;;;2.88;89.58;97550.42;1839557;76;20222;-69
2021/03/18 09:10:55;;;;;;;;;;;;;;;2.95;88.49;97546.03;1836195;77;21829;-70
2021/03/18 09:13:23;;;;;;;;;;;;;;;3.05;86.89;97556.28;1840973;76;20582;-68
2021/03/18 09:15:57;;;;;;;;;;;;;;;3.10;85.57;97550.48;1840062;76;20480;-77
2021/03/18 09:18:28;;;;;;;;;;;;;;;3.21;86.20;97559.46;1838492;76;20604;-67
2021/03/18 09:21:09;;;;;;;;;;;;;;;3.35;85.19;97555.84;1839623;77;20491;-73
2021/03/18 09:23:42;;;;;;;;;;;;;;;3.46;82.96;97555.20;1842497;76;20765;-70
2021/03/18 09:26:12;;;;;;;;;;;;;;;3.49;83.25;97553.00;1841181;76;20398;-73
2021/03/18 09:28:46;;;;;;;;;;;;;;;3.54;84.34;97561.48;1834315;76;20529;-70
2021/03/18 09:31:14;;;;;;;;;;;;;;;3.59;83.58;97553.09;1833557;76;20257;-71
2021/03/18 09:33:43;;;;;;;;;;;;;;;3.60;83.42;97552.89;1840215;77;20596;-68
2021/03/18 09:36:19;;;;;;;;;;;;;;;3.62;83.15;97556.05;1839943;77;21858;-72
2021/03/18 09:39:09;;;;;;;;;;;;;;;3.58;82.19;97552.28;1840817;76;20632;-66
2021/03/18 09:41:47;;;;;;;;;;;;;;;3.52;82.18;97557.01;1839841;77;20574;-72
2021/03/18 09:44:22;;;;;;;;;;;;;;;3.44;82.02;97555.42;1841549;76;20929;-71
2021/03/18 09:46:57;;;;;;;;;;;;;;;3.47;81.47;97562.80;1842207;76;20882;-69
2021/03/18 09:49:33;;;;;;;;;;;;;;;3.50;82.00;97556.41;1843597;76;21758;-66
2021/03/18 09:52:05;;;;;;;;;;;;;;;3.60;83.54;97560.69;1842503;76;20696;-71
2021/03/18 09:54:36;;;;;;;;;;;;;;;3.71;82.10;97557.44;1836838;76;20627;-70
2021/03/18 09:57:05;;;;;;;;;;;;;;;3.82;81.53;97562.47;1840035;76;20642;-70
2021/03/18 09:59:34;;;;;;;;;;;;;;;3.87;81.22;97562.67;1840116;76;20594;-69
2021/03/18 10:02:04;;;;;;;;;;;;;;;3.88;82.08;97563.78;1842460;76;22017;-72
2021/03/18 10:04:43;;;;;;;;;;;;;;;3.95;80.57;97567.64;1830232;76;20244;-71
2021/03/18 10:07:12;;;;;;;;;;;;;;;3.97;81.33;97553.91;1840109;76;20390;-72
2021/03/18 10:09:42;;;;;;;;;;;;;;;4.04;81.97;97563.78;1842125;77;20545;-70
2021/03/18 10:12:14;;;;;;;;;;;;;;;4.07;80.00;97562.58;1839964;77;20911;-67
2021/03/18 10:14:55;;;;;;;;;;;;;;;4.08;79.21;97561.08;1843692;76;21662;-72
2021/03/18 10:17:28;;;;;;;;;;;;;;;4.02;78.23;97559.81;1844248;76;20447;-68
2021/03/18 10:20:10;;;;;;;;;;;;;;;3.92;77.67;97570.65;1852558;77;20505;-68
2021/03/18 10:22:41;;;;;;;;;;;;;;;3.83;77.56;97562.78;1837259;77;20467;-63
2021/03/18 10:25:15;;;;;;;;;;;;;;;3.82;76.92;97557.28;1847186;77;21040;-70
2021/03/18 10:28:09;;;;;;;;;;;;;;;3.83;76.90;97558.88;1857555;76;21769;-72
2021/03/18 10:30:42;;;;;;;;;;;;;;;3.91;78.53;97567.74;1860558;75;21402;-73
2021/03/18 10:33:16;;;;;;;;;;;;;;;4.05;77.42;97558.08;1843248;75;20288;-72
2021/03/18 10:35:54;;;;;;;;;;;;;;;4.17;75.97;97557.73;1836211;77;20582;-74
2021/03/18 10:38:28;;;;;;;;;;;;;;;4.28;76.71;97555.77;1851896;76;20517;-72
2021/03/18 10:40:57;;;;;;;;;;;;;;;4.39;76.01;97554.31;1841617;77;20916;-71
2021/03/18 10:43:32;;;;;;;;;;;;;;;4.44;74.89;97554.47;1837612;76;20478;-70
2021/03/18 10:46:05;;;;;;;;;;;;;;;4.45;73.38;97556.06;1842276;76;20558;-75
2021/03/18 10:48:35;;;;;;;;;;;;;;;4.40;74.55;97557.98;1841718;76;20181;-72
2021/03/18 10:51:06;;;;;;;;;;;;;;;4.35;74.14;97550.02;1840389;75;20771;-63
2021/03/18 10:53:38;;;;;;;;;;;;;;;4.26;73.00;97549.96;1836382;75;21344;-62
2021/03/18 10:56:15;;;;;;;;;;;;;;;4.24;73.21;97546.80;1836693;75;20556;-65
2021/03/18 10:58:45;;;;;;;;;;;;;;;4.25;73.11;97540.59;1840370;75;20631;-62
2021/03/18 11:01:15;;;;;;;;;;;;;;;4.27;73.52;97542.45;1837182;76;20559;-69
2021/03/18 11:03:45;;;;;;;;;;;;;;;4.29;73.54;97542.55;1833463;75;20491;-66
2021/03/18 11:06:22;;;;;;;;;;;;;;;4.35;74.51;97534.91;1838372;76;21884;-68
2021/03/18 11:08:53;;;;;;;;;;;;;;;4.42;74.37;97538.27;1836241;75;20547;-67
2021/03/18 11:11:23;;;;;;;;;;;;;;;4.48;73.22;97540.81;1836745;76;20528;-65
2021/03/18 11:14:06;;;;;;;;;;;;;;;4.53;72.75;97525.39;1835345;76;20569;-68
2021/03/18 11:16:34;;;;;;;;;;;;;;;4.62;72.46;97534.51;1835383;76;20670;-68
2021/03/18 11:19:04;;;;;;;;;;;;;;;4.57;70.80;97527.84;1838199;75;21946;-71
2021/03/18 11:21:37;;;;;;;;;;;;;;;4.50;70.57;97523.70;1836730;76;20746;-71
2021/03/18 11:24:07;;;;;;;;;;;;;;;4.38;71.48;97528.80;1839792;76;20470;-72
2021/03/18 11:26:39;;;;;;;;;;;;;;;4.28;71.26;97525.34;1840594;76;20616;-70
2021/03/18 11:29:13;;;;;;;;;;;;;;;4.30;71.86;97523.34;1840281;76;20478;-67
2021/03/18 11:31:45;;;;;;;;;;;;;;;4.36;71.36;97520.39;1837328;76;21418;-70
2021/03/18 11:34:14;;;;;;;;;;;;;;;4.43;71.41;97515.14;1837335;76;20651;-71
2021/03/18 11:36:47;;;;;;;;;;;;;;;4.44;69.62;97512.33;1841159;76;20601;-69
2021/03/18 11:39:18;;;;;;;;;;;;;;;4.40;70.99;97531.96;1839341;76;20572;-70
2021/03/18 11:41:46;;;;;;;;;;;;;;;4.35;70.65;97512.80;1835731;75;20472;-74
2021/03/18 11:44:14;;;;;;;;;;;;;;;4.24;70.21;97512.48;1839294;76;21876;-71
2021/03/18 11:46:42;;;;;;;;;;;;;;;4.22;71.13;97517.59;1835458;77;20554;-71
2021/03/18 11:49:10;;;;;;;;;;;;;;;4.25;72.12;97518.48;1835612;76;20502;-72
2021/03/18 11:51:38;;;;;;;;;;;;;;;4.30;71.89;97515.53;1838934;77;20661;-71
2021/03/18 11:54:07;;;;;;;;;;;;;;;4.35;71.18;97512.29;1837528;77;20651;-76
2021/03/18 11:56:35;;;;;;;;;;;;;;;4.42;71.63;97508.34;1837161;76;22107;-71
2021/03/18 11:59:04;;;;;;;;;;;;;;;4.47;71.08;97513.20;1837911;76;20473;-71
2021/03/18 12:01:32;;;;;;;;;;;;;;;4.45;69.92;97507.42;1837537;76;20640;-74
2021/03/18 12:04:01;;;;;;;;;;;;;;;4.40;68.81;97504.64;1843788;76;20418;-73
2021/03/18 12:06:29;;;;;;;;;;;;;;;4.33;69.48;97509.09;1844133;76;20613;-71
2021/03/18 12:08:58;;;;;;;;;;;;;;;4.32;67.51;97498.42;1845405;76;21334;-69
2021/03/18 12:11:27;;;;;;;;;;;;;;;4.35;67.70;97496.69;1842267;76;20478;-74
2021/03/18 12:13:55;;;;;;;;;;;;;;;4.39;67.27;97501.77;1844198;76;20174;-72
2021/03/18 12:16:25;;;;;;;;;;;;;;;4.44;67.43;97496.72;1839512;76;20445;-71
2021/03/18 12:18:53;;;;;;;;;;;;;;;4.54;67.50;97501.47;1842090;76;20814;-69
2021/03/18 12:21:21;;;;;;;;;;;;;;;4.59;67.20;97499.81;1845291;76;21746;-70
2021/03/18 12:23:50;;;;;;;;;;;;;;;4.59;66.74;97498.51;1840860;76;20506;-69
2021/03/18 12:26:18;;;;;;;;;;;;;;;4.55;66.43;97501.23;1843769;76;20505;-69
2021/03/18 12:28:47;;;;;;;;;;;;;;;4.51;65.25;97501.37;1841222;76;20807;-70
2021/03/18 12:31:14;;;;;;;;;;;;;;;4.48;65.71;97498.38;1839500;76;20651;-69
2021/03/18 12:33:42;;;;;;;;;;;;;;;4.43;66.05;97492.52;1840179;76;22110;-71
2021/03/18 12:36:13;;;;;;;;;;;;;;;4.48;66.15;97493.98;1838247;76;20220;-71
2021/03/18 12:38:43;;;;;;;;;;;;;;;4.50;66.38;97492.47;1839346;76;20426;-74
2021/03/18 12:41:14;;;;;;;;;;;;;;;4.54;67.01;97497.03;1843003;76;20549;-70
2021/03/18 12:43:44;;;;;;;;;;;;;;;4.56;66.05;97491.62;1843850;76;20498;-70
2021/03/18 12:46:12;;;;;;;;;;;;;;;4.51;64.72;97497.97;1838026;76;21888;-69
2021/03/18 12:48:40;;;;;;;;;;;;;;;4.43;65.00;97497.73;1839388;75;20199;-68
2021/03/18 12:51:08;;;;;;;;;;;;;;;4.39;65.02;97491.36;1844226;76;20130;-69
2021/03/18 12:53:37;;;;;;;;;;;;;;;4.35;65.70;97493.28;1841399;76;20354;-67
2021/03/18 12:56:05;;;;;;;;;;;;;;;4.26;66.73;97487.53;1845277;76;20494;-68
2021/03/18 12:58:33;;;;;;;;;;;;;;;4.21;67.77;97492.58;1839808;76;22306;-64
2021/03/18 13:01:01;;;;;;;;;;;;;;;4.22;68.45;97496.27;1841196;76;20467;-67
2021/03/18 13:03:31;;;;;;;;;;;;;;;4.19;67.34;97495.88;1840679;76;20551;-66
2021/03/18 13:06:00;;;;;;;;;;;;;;;4.18;68.40;97487.78;1836185;76;20424;-69
2021/03/18 13:08:28;;;;;;;;;;;;;;;4.17;67.35;97496.12;1841602;76;20632;-68
2021/03/18 13:10:56;;;;;;;;;;;;;;;4.16;67.88;97495.82;1807550;78;21842;-73
2021/03/18 13:13:25;;;;;;;;;;;;;;;4.15;68.43;97492.92;1792044;78;20376;-66
2021/03/18 13:15:55;;;;;;;;;;;;;;;4.15;69.25;97499.42;1780623;78;20320;-65
2021/03/18 13:18:23;;;;;;;;;;;;;;;4.17;68.34;97494.02;1781414;78;20599;-68
2021/03/18 13:20:51;;;;;;;;;;;;;;;4.18;67.53;97496.88;1783739;78;20740;-65
2021/03/18 13:23:19;;;;;;;;;;;;;;;4.10;67.71;97495.36;1777167;79;21800;-66
2021/03/18 13:25:49;;;;;;;;;;;;;;;4.04;68.32;97499.27;1781727;78;20475;-64
2021/03/18 13:28:18;;;;;;;;;;;;;;;3.94;68.29;97494.55;1777589;78;20196;-66
2021/03/18 13:30:46;;;;;;;;;;;;;;;3.90;69.27;97500.66;1781447;78;20463;-68
2021/03/18 13:33:14;;;;;;;;;;;;;;;3.85;68.89;97490.09;1780924;78;20598;-63
2021/03/18 13:35:42;;;;;;;;;;;;;;;3.81;69.61;97494.13;1782120;78;21779;-68
2021/03/18 13:38:10;;;;;;;;;;;;;;;3.80;70.07;97490.42;1781751;79;20582;-67
2021/03/18 13:40:40;;;;;;;;;;;;;;;3.79;68.23;97502.63;1782335;78;20427;-67
2021/03/18 13:43:10;;;;;;;;;;;;;;;3.70;68.50;97501.26;1778345;79;20631;-69
2021/03/18 13:45:40;;;;;;;;;;;;;;;3.62;69.33;97489.80;1789270;79;20727;-69
2021/03/18 13:48:09;;;;;;;;;;;;;;;3.57;69.60;97485.73;1790019;78;21178;-68
2021/03/18 13:50:38;;;;;;;;;;;;;;;3.53;69.66;97491.83;1773422;79;20634;-67
2021/03/18 13:53:06;;;;;;;;;;;;;;;3.53;69.91;97489.72;1781314;79;20483;-68
2021/03/18 13:55:34;;;;;;;;;;;;;;;3.51;69.03;97490.45;1778590;78;20628;-70
2021/03/18 13:58:03;;;;;;;;;;;;;;;3.49;69.29;97485.45;1792997;78;20621;-68
2021/03/18 14:00:31;;;;;;;;;;;;;;;3.43;68.77;97488.08;1782816;78;21864;-69
2021/03/18 14:02:59;;;;;;;;;;;;;;;3.36;68.10;97488.61;1772573;79;20511;-65
2021/03/18 14:05:27;;;;;;;;;;;;;;;3.30;68.51;97484.23;1773925;79;20487;-78
2021/03/18 14:07:57;;;;;;;;;;;;;;;3.23;69.59;97488.66;1791464;79;20516;-65
2021/03/18 14:10:27;;;;;;;;;;;;;;;3.17;69.61;97490.24;1788339;79;20968;-66
2021/03/18 14:12:56;;;;;;;;;;;;;;;3.12;69.78;97485.67;1786657;79;22342;-67
2021/03/18 14:15:24;;;;;;;;;;;;;;;3.11;70.17;97487.17;1792761;79;20712;-64
2021/03/18 14:17:54;;;;;;;;;;;;;;;3.08;70.33;97481.10;1782505;79;21004;-66
2021/03/18 14:20:25;;;;;;;;;;;;;;;3.08;70.96;97487.59;1762187;79;20536;-65